Terminal Aerodrome Forecast
Issued by NWS

Current Version | Previous Version | Text Only | Print | Product List | Glossary Off
Versions: 1 2 3 4 5 6 7 8 9 10 11 12 13 14 15 16 17 18 19 20 21 22

000
FTUS41 KILN 011700
TAFLUK
TAF
KLUK 011740Z 0118/0218 VRB04KT P6SM SCT040 BKN250
     FM020000 02004KT P6SM SCT050 SCT120 BKN250
     FM020600 09005KT P6SM BKN050
     FM021200 VRB04KT P6SM VCSH SCT020 BKN035=

USA.gov is the U.S. government's official web portal to all federal, state and local government web resources and services.